METAR Formatted Surface Weather Observation
Issued by NWS

Home | Current Version | Previous Version | Text Only | Print | Product List | Glossary On
Versions: 1 2 3 4 5 6 7 8 9
769
SAUS41 KGYX 282232
MTRNKT
SPECI KNKT 282231Z 19012G24KT 10SM BKN015 27/23 A3011 RMK AO2
T02670228



USA.gov is the U.S. government's official web portal to all federal, state and local government web resources and services.